Time;durP1;ratioP1;P1;durP2;ratioP2;P2;SDS_P1;SDS_P2;PMS_P1;PMS_P2;Temp;Humidity;BMP_temperature;BMP_pressure;BME280_temperature;BME280_humidity;BME280_pressure;Samples;Min_cycle;Max_cycle;Signal;HPM_P1;HPM_P2
2023/03/09 00:00:37;;;;;;;;;;;3.30;99.90;;;;;;4996987;28;20004;-85
2023/03/09 00:03:02;;;;;;;;;;;3.20;99.90;;;;;;5013558;28;19913;-85
2023/03/09 00:05:28;;;;;;;;;;;3.20;99.90;;;;;;5013535;28;20446;-85
2023/03/09 00:07:55;;;;;;;;;;;3.10;99.90;;;;;;5015098;28;19909;-85
2023/03/09 00:10:21;;;;;;;;;;;3.10;99.90;;;;;;4996946;28;20370;-85
2023/03/09 00:12:46;;;;;;;;;;;3.20;99.90;;;;;;4997155;28;19925;-85
2023/03/09 00:15:12;;;;;;;;;;;3.20;99.90;;;;;;5013053;28;19975;-85
2023/03/09 00:17:38;;;;;;;;;;;3.20;99.90;;;;;;4996828;28;20016;-85
2023/03/09 00:20:17;;;;;;;;;;;3.20;99.90;;;;;;4996815;28;19913;-85
2023/03/09 00:22:53;;;;;;;;;;;3.20;99.90;;;;;;4997412;28;19968;-85
2023/03/09 00:25:21;;;;;;;;;;;3.10;99.90;;;;;;5000097;28;19964;-85
2023/03/09 00:27:48;;;;;;;;;;;3.10;99.90;;;;;;5017805;28;19916;-85
2023/03/09 00:30:14;;;;;;;;;;;3.10;99.90;;;;;;4999887;28;19913;-85
2023/03/09 00:32:40;;;;;;;;;;;3.10;99.90;;;;;;4999965;28;20340;-85
2023/03/09 00:35:06;;;;;;;;;;;3.10;99.90;;;;;;4999881;28;20056;-85
2023/03/09 00:37:32;;;;;;;;;;;3.10;99.90;;;;;;4999756;28;19963;-85
2023/03/09 00:39:57;;;;;;;;;;;3.00;99.90;;;;;;4999998;28;20319;-85
2023/03/09 00:42:23;;;;;;;;;;;3.00;99.90;;;;;;4999840;28;19914;-85
2023/03/09 00:44:50;;;;;;;;;;;3.00;99.90;;;;;;4999689;28;20289;-85
2023/03/09 00:47:16;;;;;;;;;;;2.90;99.90;;;;;;5016082;28;20374;-85
2023/03/09 00:49:42;;;;;;;;;;;2.90;99.90;;;;;;5016105;28;19914;-85
2023/03/09 00:52:08;;;;;;;;;;;2.90;99.90;;;;;;4999315;28;20020;-85
2023/03/09 00:54:33;;;;;;;;;;;2.90;99.90;;;;;;5017149;28;20003;-85
2023/03/09 00:57:01;;;;;;;;;;;2.90;99.90;;;;;;5017195;28;20270;-85
2023/03/09 00:59:27;;;;;;;;;;;2.90;99.90;;;;;;5015954;28;19936;-85
2023/03/09 01:01:52;;;;;;;;;;;2.90;99.90;;;;;;5015798;28;20362;-86
2023/03/09 01:04:18;;;;;;;;;;;2.90;99.90;;;;;;4999678;28;19964;-86
2023/03/09 01:06:43;;;;;;;;;;;3.00;99.90;;;;;;4998469;28;19917;-85
2023/03/09 01:09:09;;;;;;;;;;;3.00;99.90;;;;;;5015818;28;19980;-85
2023/03/09 01:11:35;;;;;;;;;;;3.00;99.90;;;;;;5017369;28;19913;-85
2023/03/09 01:14:01;;;;;;;;;;;3.00;99.90;;;;;;4999176;28;20313;-85
2023/03/09 01:16:27;;;;;;;;;;;3.00;99.90;;;;;;4999297;28;19959;-86
2023/03/09 01:18:52;;;;;;;;;;;3.00;99.90;;;;;;4998777;28;20008;-85
2023/03/09 01:21:18;;;;;;;;;;;3.00;99.90;;;;;;5015718;28;19914;-85
2023/03/09 01:23:44;;;;;;;;;;;3.10;99.90;;;;;;4999420;28;19969;-86
2023/03/09 01:26:10;;;;;;;;;;;3.00;99.90;;;;;;4999037;28;19914;-85
2023/03/09 01:28:35;;;;;;;;;;;3.10;99.90;;;;;;5015047;28;19917;-86
2023/03/09 01:31:06;;;;;;;;;;;3.10;99.90;;;;;;4998831;28;19913;-85
2023/03/09 01:33:31;;;;;;;;;;;3.10;99.90;;;;;;4998717;28;19915;-85
2023/03/09 01:35:57;;;;;;;;;;;3.20;99.90;;;;;;4998502;28;20328;-86
2023/03/09 01:38:22;;;;;;;;;;;3.20;99.90;;;;;;5015809;28;19921;-85
2023/03/09 01:40:48;;;;;;;;;;;3.20;99.90;;;;;;5015480;28;20333;-85
2023/03/09 01:43:20;;;;;;;;;;;3.30;99.90;;;;;;5000551;28;19956;-85
2023/03/09 01:45:48;;;;;;;;;;;3.30;99.90;;;;;;5017004;28;19944;-84
2023/03/09 01:48:14;;;;;;;;;;;3.30;99.90;;;;;;5014613;28;19916;-84
2023/03/09 01:50:40;;;;;;;;;;;3.30;99.90;;;;;;4998457;28;19913;-84
2023/03/09 01:53:10;;;;;;;;;;;3.40;99.90;;;;;;5014357;28;19967;-84
2023/03/09 01:55:42;;;;;;;;;;;3.40;99.90;;;;;;5016046;28;19909;-83
2023/03/09 01:58:16;;;;;;;;;;;3.40;99.90;;;;;;5014762;28;19960;-84
2023/03/09 02:00:44;;;;;;;;;;;3.40;99.90;;;;;;5015994;28;20290;-84
2023/03/09 02:03:12;;;;;;;;;;;3.40;99.90;;;;;;5015901;28;19913;-84
2023/03/09 02:06:00;;;;;;;;;;;3.40;99.90;;;;;;4998129;28;19921;-84
2023/03/09 02:08:27;;;;;;;;;;;3.40;99.90;;;;;;5004589;28;19996;-83
2023/03/09 02:10:57;;;;;;;;;;;3.40;99.90;;;;;;4998554;28;20330;-83
2023/03/09 02:13:31;;;;;;;;;;;3.50;99.90;;;;;;4998111;28;19909;-83
2023/03/09 02:15:56;;;;;;;;;;;3.50;99.90;;;;;;4998097;28;19921;-84
2023/03/09 02:18:24;;;;;;;;;;;3.50;99.90;;;;;;4998003;28;20315;-84
2023/03/09 02:21:01;;;;;;;;;;;3.50;99.90;;;;;;4997976;28;19914;-83
2023/03/09 02:23:36;;;;;;;;;;;3.50;99.90;;;;;;5015043;28;19928;-84
2023/03/09 02:26:18;;;;;;;;;;;3.40;99.90;;;;;;5015578;28;19913;-84
2023/03/09 02:28:44;;;;;;;;;;;3.50;99.90;;;;;;5015125;28;20429;-84
2023/03/09 02:31:11;;;;;;;;;;;3.40;99.90;;;;;;5015272;28;19967;-84
2023/03/09 02:33:36;;;;;;;;;;;3.40;99.90;;;;;;5014092;28;19913;-83
2023/03/09 02:36:02;;;;;;;;;;;3.30;99.90;;;;;;5014198;28;19945;-84
2023/03/09 02:38:28;;;;;;;;;;;3.30;99.90;;;;;;4997118;28;19957;-85
2023/03/09 02:40:55;;;;;;;;;;;3.20;99.90;;;;;;4997583;28;19936;-84
2023/03/09 02:43:24;;;;;;;;;;;3.30;99.90;;;;;;5014966;28;19909;-84
2023/03/09 02:45:51;;;;;;;;;;;3.20;99.90;;;;;;5015028;28;20322;-84
2023/03/09 02:48:16;;;;;;;;;;;3.20;99.90;;;;;;4997513;28;19920;-84
2023/03/09 02:50:43;;;;;;;;;;;3.20;99.90;;;;;;5014967;28;19909;-84
2023/03/09 02:53:09;;;;;;;;;;;3.20;99.90;;;;;;5014031;28;19914;-84
2023/03/09 02:55:35;;;;;;;;;;;3.10;99.90;;;;;;5015145;28;19960;-84
2023/03/09 02:58:01;;;;;;;;;;;3.10;99.90;;;;;;5015352;28;19920;-84
2023/03/09 03:00:26;;;;;;;;;;;3.10;99.90;;;;;;5015249;28;19914;-85
2023/03/09 03:02:52;;;;;;;;;;;3.00;99.90;;;;;;4997004;28;20381;-84
2023/03/09 03:05:18;;;;;;;;;;;3.00;99.90;;;;;;5014696;28;19913;-84
2023/03/09 03:07:43;;;;;;;;;;;2.90;99.90;;;;;;5014610;28;19956;-84
2023/03/09 03:10:09;;;;;;;;;;;2.90;99.90;;;;;;5013527;28;20350;-84
2023/03/09 03:12:35;;;;;;;;;;;2.80;99.90;;;;;;4997075;28;19913;-84
2023/03/09 03:15:01;;;;;;;;;;;2.80;99.90;;;;;;4997408;28;19914;-85
2023/03/09 03:17:26;;;;;;;;;;;2.70;99.90;;;;;;5014011;28;20290;-84
2023/03/09 03:19:53;;;;;;;;;;;2.70;99.90;;;;;;5013254;28;20395;-84
2023/03/09 03:22:19;;;;;;;;;;;2.60;99.90;;;;;;5013243;28;19968;-84
2023/03/09 03:24:44;;;;;;;;;;;2.60;99.90;;;;;;5013062;28;20427;-84
2023/03/09 03:27:10;;;;;;;;;;;2.60;99.90;;;;;;5013165;28;20427;-84
2023/03/09 03:29:36;;;;;;;;;;;2.50;99.90;;;;;;5013050;28;19921;-84
2023/03/09 03:32:01;;;;;;;;;;;2.50;99.90;;;;;;5013186;28;19913;-84
2023/03/09 03:34:27;;;;;;;;;;;2.50;99.90;;;;;;4996532;28;20039;-84
2023/03/09 03:36:52;;;;;;;;;;;2.50;99.90;;;;;;4996769;28;20366;-84
2023/03/09 03:39:18;;;;;;;;;;;2.40;99.90;;;;;;4996427;28;19909;-84
2023/03/09 03:41:43;;;;;;;;;;;2.40;99.90;;;;;;4996704;28;19941;-84
2023/03/09 03:44:09;;;;;;;;;;;2.40;99.90;;;;;;4996571;28;19914;-84
2023/03/09 03:46:34;;;;;;;;;;;2.40;99.90;;;;;;4996664;28;19964;-84
2023/03/09 03:49:00;;;;;;;;;;;2.40;99.90;;;;;;5012977;28;20362;-84
2023/03/09 03:51:26;;;;;;;;;;;2.50;99.90;;;;;;4996760;28;19913;-84
2023/03/09 03:53:51;;;;;;;;;;;2.50;99.90;;;;;;4996646;28;19964;-84
2023/03/09 03:56:17;;;;;;;;;;;2.50;99.90;;;;;;5012921;28;20368;-84
2023/03/09 03:58:43;;;;;;;;;;;2.50;99.90;;;;;;5014479;28;19999;-84
2023/03/09 04:01:08;;;;;;;;;;;2.50;99.90;;;;;;5017394;28;19948;-84
2023/03/09 04:03:34;;;;;;;;;;;2.50;99.90;;;;;;5016573;28;19909;-84
2023/03/09 04:06:02;;;;;;;;;;;2.50;99.90;;;;;;5016973;28;19917;-84
2023/03/09 04:08:28;;;;;;;;;;;2.50;99.90;;;;;;4999578;28;19963;-84
2023/03/09 04:10:53;;;;;;;;;;;2.50;99.90;;;;;;4999884;28;20327;-84
2023/03/09 04:13:19;;;;;;;;;;;2.60;99.90;;;;;;5017474;28;19953;-84
2023/03/09 04:15:44;;;;;;;;;;;2.60;99.90;;;;;;4999747;28;20036;-84
2023/03/09 04:18:10;;;;;;;;;;;2.60;99.90;;;;;;5000202;28;19936;-84
2023/03/09 04:20:37;;;;;;;;;;;2.60;99.90;;;;;;5016050;28;19922;-84
2023/03/09 04:23:02;;;;;;;;;;;2.70;99.90;;;;;;5017230;28;19917;-84
2023/03/09 04:25:28;;;;;;;;;;;2.70;99.90;;;;;;4999586;28;20008;-83
2023/03/09 04:27:54;;;;;;;;;;;2.60;99.90;;;;;;5000071;28;19913;-84
2023/03/09 04:30:21;;;;;;;;;;;2.50;99.90;;;;;;5016231;28;19920;-83
2023/03/09 04:32:47;;;;;;;;;;;2.50;99.90;;;;;;5016150;28;20317;-84
2023/03/09 04:35:13;;;;;;;;;;;2.60;99.90;;;;;;5017558;28;19910;-84
2023/03/09 04:37:39;;;;;;;;;;;2.50;99.90;;;;;;4999765;28;19955;-84
2023/03/09 04:40:05;;;;;;;;;;;2.50;99.90;;;;;;5017209;28;19909;-83
2023/03/09 04:42:31;;;;;;;;;;;2.50;99.90;;;;;;4999697;28;19964;-84
2023/03/09 04:44:56;;;;;;;;;;;2.50;99.90;;;;;;5000025;28;19964;-83
2023/03/09 04:47:22;;;;;;;;;;;2.50;99.90;;;;;;4999839;28;19909;-84
2023/03/09 04:49:48;;;;;;;;;;;2.50;99.90;;;;;;4999463;28;19910;-84
2023/03/09 04:52:14;;;;;;;;;;;2.50;99.90;;;;;;5016031;28;20385;-84
2023/03/09 04:54:40;;;;;;;;;;;2.40;99.90;;;;;;4998699;28;20000;-84
2023/03/09 04:57:05;;;;;;;;;;;2.40;99.90;;;;;;5015624;28;19913;-84
2023/03/09 04:59:31;;;;;;;;;;;2.40;99.90;;;;;;4999002;28;19913;-84
2023/03/09 05:01:56;;;;;;;;;;;2.40;99.90;;;;;;5015827;28;19921;-83
2023/03/09 05:04:22;;;;;;;;;;;2.40;99.90;;;;;;4999279;28;20270;-83
2023/03/09 05:06:47;;;;;;;;;;;2.40;99.90;;;;;;4999738;28;19918;-84
2023/03/09 05:09:14;;;;;;;;;;;2.50;99.90;;;;;;5015049;28;20339;-84
2023/03/09 05:11:39;;;;;;;;;;;2.40;99.90;;;;;;5015299;28;20377;-84
2023/03/09 05:14:05;;;;;;;;;;;2.40;99.90;;;;;;4998998;28;19921;-84
2023/03/09 05:16:30;;;;;;;;;;;2.40;99.90;;;;;;4999045;28;20020;-84
2023/03/09 05:18:56;;;;;;;;;;;2.40;99.90;;;;;;5015162;28;20297;-84
2023/03/09 05:21:22;;;;;;;;;;;2.40;99.90;;;;;;5015397;28;20004;-84
2023/03/09 05:23:47;;;;;;;;;;;2.40;99.90;;;;;;4998702;28;20016;-84
2023/03/09 05:26:13;;;;;;;;;;;2.40;99.90;;;;;;5015164;28;19918;-84
2023/03/09 05:28:40;;;;;;;;;;;2.40;99.90;;;;;;4998596;28;19921;-84
2023/03/09 05:31:10;;;;;;;;;;;2.40;99.90;;;;;;5015298;28;19920;-84
2023/03/09 05:33:36;;;;;;;;;;;2.40;99.90;;;;;;4998527;28;19913;-85
2023/03/09 05:36:01;;;;;;;;;;;2.40;99.90;;;;;;4998394;28;19921;-85
2023/03/09 05:38:27;;;;;;;;;;;2.30;99.90;;;;;;5014619;28;19914;-84
2023/03/09 05:40:52;;;;;;;;;;;2.30;99.90;;;;;;5017186;28;19921;-81
2023/03/09 05:43:18;;;;;;;;;;;2.30;99.90;;;;;;5015245;28;20014;-81
2023/03/09 05:45:43;;;;;;;;;;;2.40;99.90;;;;;;4998730;28;19922;-81
2023/03/09 05:48:09;;;;;;;;;;;2.40;99.90;;;;;;5016354;28;19913;-81
2023/03/09 05:50:36;;;;;;;;;;;2.40;99.90;;;;;;5016542;28;19913;-81
2023/03/09 05:53:02;;;;;;;;;;;2.50;99.90;;;;;;5015023;28;20389;-80
2023/03/09 05:55:27;;;;;;;;;;;2.50;99.90;;;;;;5016021;28;19914;-80
2023/03/09 05:57:53;;;;;;;;;;;2.50;99.90;;;;;;4998692;28;20358;-80
2023/03/09 06:00:19;;;;;;;;;;;2.60;99.90;;;;;;4998759;28;19910;-80
2023/03/09 06:02:44;;;;;;;;;;;2.70;99.90;;;;;;4998842;28;19936;-80
2023/03/09 06:05:10;;;;;;;;;;;2.70;99.90;;;;;;5015041;28;20332;-81
2023/03/09 06:07:35;;;;;;;;;;;2.70;99.90;;;;;;5014809;28;19960;-80
2023/03/09 06:10:01;;;;;;;;;;;2.80;99.90;;;;;;5014815;28;19913;-80
2023/03/09 06:12:26;;;;;;;;;;;2.80;99.90;;;;;;5016148;28;19919;-80
2023/03/09 06:14:52;;;;;;;;;;;2.80;99.90;;;;;;5016201;28;20007;-80
2023/03/09 06:17:18;;;;;;;;;;;2.70;99.90;;;;;;5014706;28;19913;-80
2023/03/09 06:19:43;;;;;;;;;;;2.70;99.90;;;;;;5015906;28;19920;-80
2023/03/09 06:22:09;;;;;;;;;;;2.70;99.90;;;;;;5014025;28;19928;-80
2023/03/09 06:24:35;;;;;;;;;;;2.70;99.90;;;;;;5014635;28;19913;-80
2023/03/09 06:27:01;;;;;;;;;;;2.80;99.90;;;;;;5015990;28;19921;-80
2023/03/09 06:29:27;;;;;;;;;;;2.80;99.90;;;;;;4998360;28;19921;-80
2023/03/09 06:31:53;;;;;;;;;;;2.80;99.90;;;;;;5016027;28;20445;-80
2023/03/09 06:34:18;;;;;;;;;;;2.80;99.90;;;;;;4998324;28;19963;-80
2023/03/09 06:36:44;;;;;;;;;;;2.90;99.90;;;;;;5014205;28;19909;-80
2023/03/09 06:39:10;;;;;;;;;;;3.00;99.90;;;;;;5015696;28;19976;-80
2023/03/09 06:41:36;;;;;;;;;;;3.00;99.90;;;;;;5015884;28;20429;-80
2023/03/09 06:44:02;;;;;;;;;;;3.00;99.90;;;;;;5015497;28;20004;-81
2023/03/09 06:46:28;;;;;;;;;;;3.10;99.90;;;;;;5015439;28;19961;-80
2023/03/09 06:48:53;;;;;;;;;;;3.10;99.90;;;;;;5015442;28;19909;-81
2023/03/09 06:51:19;;;;;;;;;;;3.00;99.90;;;;;;5015413;28;19914;-81
2023/03/09 06:53:45;;;;;;;;;;;3.00;99.90;;;;;;5014891;28;19952;-81
2023/03/09 06:56:10;;;;;;;;;;;3.10;99.90;;;;;;5012853;28;19913;-81
2023/03/09 06:58:36;;;;;;;;;;;3.10;99.90;;;;;;5015361;28;19917;-81
2023/03/09 07:01:06;;;;;;;;;;;3.00;99.90;;;;;;4997754;28;19909;-82
2023/03/09 07:03:32;;;;;;;;;;;3.00;99.90;;;;;;5015370;28;19913;-82
2023/03/09 07:05:57;;;;;;;;;;;3.10;99.90;;;;;;5015265;28;20286;-82
2023/03/09 07:08:23;;;;;;;;;;;3.10;99.90;;;;;;4997523;28;20008;-82
2023/03/09 07:10:49;;;;;;;;;;;3.10;99.90;;;;;;5015722;28;19917;-82
2023/03/09 07:13:15;;;;;;;;;;;3.10;99.90;;;;;;5015223;28;19963;-83
2023/03/09 07:15:40;;;;;;;;;;;3.10;99.90;;;;;;5014787;28;19962;-83
2023/03/09 07:18:06;;;;;;;;;;;3.10;99.90;;;;;;5013640;28;19918;-84
2023/03/09 07:20:32;;;;;;;;;;;3.20;99.90;;;;;;5014859;28;19920;-84
2023/03/09 07:22:57;;;;;;;;;;;3.20;99.90;;;;;;5014523;28;19918;-84
2023/03/09 07:25:23;;;;;;;;;;;3.20;99.90;;;;;;5013257;28;19924;-83
2023/03/09 07:27:49;;;;;;;;;;;3.20;99.90;;;;;;5013354;28;19996;-83
2023/03/09 07:30:15;;;;;;;;;;;3.20;99.90;;;;;;4997584;28;19910;-84
2023/03/09 07:32:40;;;;;;;;;;;3.20;99.90;;;;;;5015818;28;19913;-83
2023/03/09 07:35:06;;;;;;;;;;;3.30;99.90;;;;;;5002125;28;19940;-83
2023/03/09 07:37:32;;;;;;;;;;;3.30;99.90;;;;;;5018739;28;19937;-83
2023/03/09 07:39:57;;;;;;;;;;;3.30;99.90;;;;;;5019135;28;20404;-83
2023/03/09 07:42:23;;;;;;;;;;;3.30;99.90;;;;;;5020057;28;19913;-83
2023/03/09 07:44:48;;;;;;;;;;;3.30;99.90;;;;;;5018524;28;19939;-83
2023/03/09 07:47:14;;;;;;;;;;;3.30;99.90;;;;;;5018176;28;20004;-82
2023/03/09 07:49:39;;;;;;;;;;;3.30;99.90;;;;;;5017672;28;19920;-81
2023/03/09 07:52:05;;;;;;;;;;;3.40;99.90;;;;;;5017831;28;20293;-82
2023/03/09 07:54:32;;;;;;;;;;;3.40;99.90;;;;;;5019417;28;20426;-82
2023/03/09 07:56:58;;;;;;;;;;;3.40;99.90;;;;;;5019224;28;19913;-82
2023/03/09 07:59:23;;;;;;;;;;;3.40;99.90;;;;;;5017537;28;20000;-82
2023/03/09 08:01:49;;;;;;;;;;;3.40;99.90;;;;;;5000846;28;19913;-82
2023/03/09 08:04:16;;;;;;;;;;;3.50;99.90;;;;;;5016574;28;19914;-83
2023/03/09 08:06:41;;;;;;;;;;;3.60;99.90;;;;;;5018307;28;19925;-82
2023/03/09 08:09:12;;;;;;;;;;;3.80;99.90;;;;;;5000434;28;19910;-83
2023/03/09 08:11:37;;;;;;;;;;;3.80;99.90;;;;;;5019009;28;20274;-83
2023/03/09 08:14:03;;;;;;;;;;;4.00;99.90;;;;;;5000452;28;19914;-83
2023/03/09 08:16:29;;;;;;;;;;;4.10;99.90;;;;;;5017920;28;19964;-83
2023/03/09 08:18:54;;;;;;;;;;;4.30;99.90;;;;;;5000867;28;19913;-83
2023/03/09 08:21:20;;;;;;;;;;;4.40;99.90;;;;;;5000524;28;19913;-83
2023/03/09 08:23:45;;;;;;;;;;;4.50;99.90;;;;;;5016600;28;20020;-83
2023/03/09 08:26:12;;;;;;;;;;;4.50;99.90;;;;;;4984265;28;20362;-83
2023/03/09 08:28:39;;;;;;;;;;;4.60;99.90;;;;;;5000294;28;19973;-83
2023/03/09 08:31:05;;;;;;;;;;;4.70;99.90;;;;;;5001239;28;19910;-84
2023/03/09 08:33:31;;;;;;;;;;;4.70;99.90;;;;;;5003497;28;19910;-84
2023/03/09 08:35:56;;;;;;;;;;;4.80;99.90;;;;;;5018796;28;19941;-83
2023/03/09 08:38:22;;;;;;;;;;;4.90;99.90;;;;;;5017602;28;19916;-83
2023/03/09 08:40:48;;;;;;;;;;;5.00;99.90;;;;;;5000121;28;20381;-83
2023/03/09 08:43:13;;;;;;;;;;;5.00;99.90;;;;;;5017247;28;20328;-83
2023/03/09 08:45:39;;;;;;;;;;;5.10;99.90;;;;;;4983570;28;19917;-83
2023/03/09 08:48:05;;;;;;;;;;;5.20;99.90;;;;;;5017415;28;20278;-83
2023/03/09 08:50:31;;;;;;;;;;;5.30;99.90;;;;;;5017213;28;20366;-83
2023/03/09 08:52:56;;;;;;;;;;;5.40;99.90;;;;;;4999972;28;19917;-83
2023/03/09 08:55:22;;;;;;;;;;;5.40;99.90;;;;;;4999610;28;19913;-83
2023/03/09 08:57:47;;;;;;;;;;;5.50;99.90;;;;;;4983568;28;19920;-83
2023/03/09 09:00:14;;;;;;;;;;;5.50;99.90;;;;;;5017546;28;20263;-83
2023/03/09 09:02:40;;;;;;;;;;;5.60;99.90;;;;;;4999452;28;20004;-83
2023/03/09 09:05:09;;;;;;;;;;;5.70;99.90;;;;;;5017054;28;20381;-83
2023/03/09 09:07:35;;;;;;;;;;;5.80;99.90;;;;;;4999377;28;19910;-83
2023/03/09 09:10:00;;;;;;;;;;;5.80;99.90;;;;;;5017130;28;19909;-83
2023/03/09 09:12:27;;;;;;;;;;;5.90;99.90;;;;;;5016915;28;19945;-83
2023/03/09 09:14:56;;;;;;;;;;;5.90;99.90;;;;;;5017163;28;19914;-83
2023/03/09 09:17:22;;;;;;;;;;;5.90;99.90;;;;;;5017106;28;19909;-83
2023/03/09 09:19:47;;;;;;;;;;;6.00;99.90;;;;;;4999705;28;19909;-83
2023/03/09 09:22:13;;;;;;;;;;;6.00;99.90;;;;;;5016554;28;20298;-83
2023/03/09 09:24:39;;;;;;;;;;;6.20;99.90;;;;;;5016063;28;19964;-83
2023/03/09 09:27:05;;;;;;;;;;;6.20;99.90;;;;;;4999187;28;20350;-83
2023/03/09 09:29:35;;;;;;;;;;;6.40;99.90;;;;;;5016709;28;19917;-83
2023/03/09 09:32:01;;;;;;;;;;;6.40;99.90;;;;;;5015528;28;19919;-83
2023/03/09 09:34:30;;;;;;;;;;;6.60;99.90;;;;;;4998787;28;20392;-83
2023/03/09 09:36:56;;;;;;;;;;;6.60;99.90;;;;;;5016671;28;19985;-83
2023/03/09 09:39:22;;;;;;;;;;;6.70;99.90;;;;;;4998970;28;19913;-83
2023/03/09 09:41:50;;;;;;;;;;;6.90;99.90;;;;;;5015306;28;19919;-83
2023/03/09 09:44:18;;;;;;;;;;;6.90;99.90;;;;;;4998845;28;19910;-84
2023/03/09 09:46:44;;;;;;;;;;;7.10;99.90;;;;;;5016514;28;19936;-83
2023/03/09 09:49:15;;;;;;;;;;;7.30;99.90;;;;;;4999254;28;19955;-83
2023/03/09 09:51:49;;;;;;;;;;;7.50;99.90;;;;;;5016652;28;20345;-83
2023/03/09 09:54:36;;;;;;;;;;;7.60;99.90;;;;;;4999080;28;19916;-83
2023/03/09 09:57:04;;;;;;;;;;;7.80;99.90;;;;;;5015722;28;19910;-83
2023/03/09 09:59:34;;;;;;;;;;;7.90;99.90;;;;;;4998546;28;20388;-83
2023/03/09 10:02:20;;;;;;;;;;;8.10;99.90;;;;;;5016127;28;19909;-83
2023/03/09 10:04:52;;;;;;;;;;;8.20;99.90;;;;;;5015764;28;19910;-83
2023/03/09 10:07:19;;;;;;;;;;;8.40;99.90;;;;;;4998418;28;19909;-83
2023/03/09 10:09:46;;;;;;;;;;;8.50;99.90;;;;;;5015091;28;19916;-83
2023/03/09 10:12:16;;;;;;;;;;;8.70;99.90;;;;;;4998311;28;19909;-83
2023/03/09 10:15:05;;;;;;;;;;;8.80;99.90;;;;;;4998684;28;19933;-83
2023/03/09 10:17:31;;;;;;;;;;;8.90;99.90;;;;;;5016098;28;20428;-83
2023/03/09 10:20:02;;;;;;;;;;;9.10;99.90;;;;;;5014362;28;19917;-83
2023/03/09 10:22:27;;;;;;;;;;;9.30;99.90;;;;;;5016080;28;19917;-83
2023/03/09 10:24:54;;;;;;;;;;;9.50;99.90;;;;;;5015691;28;19925;-83
2023/03/09 10:27:30;;;;;;;;;;;9.70;99.90;;;;;;5014779;28;19993;-83
2023/03/09 10:29:55;;;;;;;;;;;9.80;99.90;;;;;;4998483;28;20354;-83
2023/03/09 10:32:26;;;;;;;;;;;9.90;99.90;;;;;;5015693;28;19924;-83
2023/03/09 10:35:01;;;;;;;;;;;10.00;99.90;;;;;;5015849;28;19917;-83
2023/03/09 10:37:29;;;;;;;;;;;10.10;99.90;;;;;;4998568;28;20059;-83
2023/03/09 10:39:55;;;;;;;;;;;10.20;99.90;;;;;;5015456;28;19996;-83
2023/03/09 10:42:23;;;;;;;;;;;10.30;99.90;;;;;;5015665;28;19953;-83
2023/03/09 10:45:15;;;;;;;;;;;10.50;99.90;;;;;;5016053;28;19910;-83
2023/03/09 10:47:47;;;;;;;;;;;10.60;99.90;;;;;;5011531;28;19963;-83
2023/03/09 10:50:13;;;;;;;;;;;10.70;99.90;;;;;;5014665;28;20255;-83
2023/03/09 10:52:39;;;;;;;;;;;10.80;99.90;;;;;;4981534;28;20003;-83
2023/03/09 10:55:23;;;;;;;;;;;10.80;99.90;;;;;;4997143;28;19972;-83
2023/03/09 10:57:55;;;;;;;;;;;11.00;99.90;;;;;;5014527;28;19916;-82
2023/03/09 11:00:21;;;;;;;;;;;11.00;99.90;;;;;;5015284;28;19913;-83
2023/03/09 11:02:54;;;;;;;;;;;11.10;99.90;;;;;;4997114;28;19964;-83
2023/03/09 11:05:21;;;;;;;;;;;11.10;99.90;;;;;;4996866;28;19913;-82
2023/03/09 11:07:52;;;;;;;;;;;11.20;99.90;;;;;;4996631;28;19913;-83
2023/03/09 11:10:44;;;;;;;;;;;11.30;99.90;;;;;;5014454;28;19918;-83
2023/03/09 11:13:16;;;;;;;;;;;11.40;99.90;;;;;;5012314;28;19909;-83
2023/03/09 11:15:43;;;;;;;;;;;11.40;99.90;;;;;;4997209;28;19959;-83
2023/03/09 11:18:28;;;;;;;;;;;11.50;99.90;;;;;;4980987;28;20286;-83
2023/03/09 11:20:54;;;;;;;;;;;11.50;99.90;;;;;;5014839;28;19948;-83
2023/03/09 11:23:22;;;;;;;;;;;11.60;99.90;;;;;;5014308;28;20050;-83
2023/03/09 11:25:57;;;;;;;;;;;11.80;99.90;;;;;;5014615;28;19913;-83
2023/03/09 11:28:35;;;;;;;;;;;11.90;99.90;;;;;;4997180;28;19909;-83
2023/03/09 11:31:00;;;;;;;;;;;12.00;99.90;;;;;;5013591;28;20321;-83
2023/03/09 11:33:27;;;;;;;;;;;12.10;99.90;;;;;;4997077;28;19914;-83
2023/03/09 11:35:53;;;;;;;;;;;12.20;99.90;;;;;;4980768;28;20001;-83
2023/03/09 11:38:19;;;;;;;;;;;12.30;99.90;;;;;;5014544;28;19913;-82
2023/03/09 11:40:46;;;;;;;;;;;12.30;99.90;;;;;;4997058;28;19913;-83
2023/03/09 11:43:23;;;;;;;;;;;12.40;99.90;;;;;;5029558;28;19916;-82
2023/03/09 11:45:49;;;;;;;;;;;12.40;99.90;;;;;;5017063;28;19913;-83
2023/03/09 11:48:20;;;;;;;;;;;12.40;99.90;;;;;;5033628;28;19920;-82
2023/03/09 11:50:53;;;;;;;;;;;12.50;99.90;;;;;;5034531;28;20005;-82
2023/03/09 11:53:26;;;;;;;;;;;12.70;99.90;;;;;;5033987;28;19916;-82
2023/03/09 11:55:54;;;;;;;;;;;12.80;99.90;;;;;;5034589;28;19909;-82
2023/03/09 11:58:26;;;;;;;;;;;12.90;99.90;;;;;;5034731;28;19916;-82
2023/03/09 12:00:55;;;;;;;;;;;12.90;99.90;;;;;;5034492;28;19910;-82
2023/03/09 12:03:21;;;;;;;;;;;13.10;99.90;;;;;;5033136;28;19909;-82
2023/03/09 12:05:50;;;;;;;;;;;13.10;99.90;;;;;;5016820;28;19991;-81
2023/03/09 12:08:37;;;;;;;;;;;13.20;99.90;;;;;;5016793;28;19909;-81
2023/03/09 12:11:21;;;;;;;;;;;13.20;99.90;;;;;;5016657;28;20369;-82
2023/03/09 12:13:52;;;;;;;;;;;13.20;99.90;;;;;;5034591;28;19974;-82
2023/03/09 12:16:20;;;;;;;;;;;13.20;99.90;;;;;;5034409;28;20342;-82
2023/03/09 12:19:01;;;;;;;;;;;13.30;99.90;;;;;;5016596;28;19917;-82
2023/03/09 12:21:31;;;;;;;;;;;13.50;99.90;;;;;;5037997;28;19920;-81
2023/03/09 12:23:58;;;;;;;;;;;13.60;99.90;;;;;;5020696;28;20247;-81
2023/03/09 12:26:29;;;;;;;;;;;13.60;99.90;;;;;;5006395;28;19922;-82
2023/03/09 12:29:01;;;;;;;;;;;13.60;99.90;;;;;;5018593;28;19917;-82
2023/03/09 12:31:35;;;;;;;;;;;13.60;99.90;;;;;;5017298;28;19917;-82
2023/03/09 12:34:02;;;;;;;;;;;13.60;99.90;;;;;;5007221;28;20313;-82
2023/03/09 12:36:29;;;;;;;;;;;13.70;99.90;;;;;;4998348;28;19913;-82
2023/03/09 12:39:13;;;;;;;;;;;13.90;99.90;;;;;;4987950;28;19910;-82
2023/03/09 12:42:03;;;;;;;;;;;13.90;99.90;;;;;;5010031;28;20358;-82
2023/03/09 12:44:44;;;;;;;;;;;13.90;98.40;;;;;;5008879;28;20270;-82
2023/03/09 12:47:28;;;;;;;;;;;14.10;97.90;;;;;;5018070;28;19918;-82
2023/03/09 12:49:55;;;;;;;;;;;14.20;98.10;;;;;;5016169;28;19913;-82
2023/03/09 12:52:40;;;;;;;;;;;14.20;97.10;;;;;;5013770;28;19914;-81
2023/03/09 12:55:16;;;;;;;;;;;14.10;98.60;;;;;;5034290;28;19913;-82
2023/03/09 12:57:43;;;;;;;;;;;13.90;95.80;;;;;;5016580;28;19941;-80
2023/03/09 13:00:19;;;;;;;;;;;13.80;97.30;;;;;;4999116;28;19917;-80
2023/03/09 13:02:51;;;;;;;;;;;13.90;96.10;;;;;;4988799;28;20004;-80
2023/03/09 13:05:26;;;;;;;;;;;14.00;99.40;;;;;;5018600;28;19917;-80
2023/03/09 13:07:53;;;;;;;;;;;14.10;97.90;;;;;;5018383;28;19913;-80
2023/03/09 13:10:22;;;;;;;;;;;14.30;95.80;;;;;;5024556;28;19913;-80
2023/03/09 13:12:53;;;;;;;;;;;14.40;97.10;;;;;;5017787;28;19921;-80
2023/03/09 13:15:20;;;;;;;;;;;14.60;94.60;;;;;;5010230;28;19921;-80
2023/03/09 13:18:03;;;;;;;;;;;14.50;94.20;;;;;;5017235;28;19947;-80
2023/03/09 13:20:41;;;;;;;;;;;14.70;94.90;;;;;;4996445;28;19933;-80
2023/03/09 13:23:14;;;;;;;;;;;14.90;96.00;;;;;;4999635;28;19967;-80
2023/03/09 13:25:50;;;;;;;;;;;15.10;93.00;;;;;;5017169;28;19976;-79
2023/03/09 13:28:28;;;;;;;;;;;15.20;91.40;;;;;;5017352;28;19910;-79
2023/03/09 13:30:56;;;;;;;;;;;15.20;90.80;;;;;;5017113;28;20318;-80
2023/03/09 13:33:29;;;;;;;;;;;15.20;92.30;;;;;;5014639;28;20041;-79
2023/03/09 13:36:02;;;;;;;;;;;15.40;91.80;;;;;;5007193;28;19957;-79
2023/03/09 13:38:30;;;;;;;;;;;15.40;90.70;;;;;;5017163;28;19916;-80
2023/03/09 13:41:02;;;;;;;;;;;15.50;92.20;;;;;;5016619;28;19916;-79
2023/03/09 13:43:31;;;;;;;;;;;15.60;85.90;;;;;;5016229;28;20362;-80
2023/03/09 13:46:23;;;;;;;;;;;15.60;88.60;;;;;;4999039;28;20423;-79
2023/03/09 13:48:50;;;;;;;;;;;15.50;87.10;;;;;;4997271;28;19910;-80
2023/03/09 13:51:35;;;;;;;;;;;15.60;86.30;;;;;;5017318;28;19948;-80
2023/03/09 13:54:01;;;;;;;;;;;15.70;89.50;;;;;;4998515;28;19910;-80
2023/03/09 13:56:28;;;;;;;;;;;15.80;85.50;;;;;;4998801;28;20007;-80
2023/03/09 13:58:54;;;;;;;;;;;15.80;83.00;;;;;;4998759;28;19937;-80
2023/03/09 14:01:20;;;;;;;;;;;15.80;88.30;;;;;;5006177;28;20340;-80
2023/03/09 14:03:49;;;;;;;;;;;15.70;87.60;;;;;;5016561;28;19935;-80
2023/03/09 14:06:15;;;;;;;;;;;15.70;86.50;;;;;;4998623;28;19921;-80
2023/03/09 14:08:43;;;;;;;;;;;15.70;86.30;;;;;;5014807;28;19910;-80
2023/03/09 14:11:17;;;;;;;;;;;15.80;87.90;;;;;;4998175;28;19910;-80
2023/03/09 14:13:57;;;;;;;;;;;15.90;85.50;;;;;;5016318;28;20366;-80
2023/03/09 14:16:23;;;;;;;;;;;16.00;82.80;;;;;;5013264;28;20405;-79
2023/03/09 14:18:50;;;;;;;;;;;15.90;82.60;;;;;;5017783;28;19918;-79
2023/03/09 14:21:37;;;;;;;;;;;16.00;83.20;;;;;;4996419;28;19914;-80
2023/03/09 14:24:21;;;;;;;;;;;16.00;82.70;;;;;;5015075;28;19922;-79
2023/03/09 14:26:47;;;;;;;;;;;16.10;78.20;;;;;;4998354;28;19921;-80
2023/03/09 14:29:14;;;;;;;;;;;16.20;75.90;;;;;;5013911;28;20557;-80
2023/03/09 14:31:40;;;;;;;;;;;16.40;77.20;;;;;;4998170;28;19913;-80